sensor_id;sensor_type;location;lat;lon;timestamp;P1;durP1;ratioP1;P2;durP2;ratioP2
20908;SDS011;10614;53.198;6.570;2023-07-09T00:00:54;10.30;;;7.00;;
20908;SDS011;10614;53.198;6.570;2023-07-09T00:03:00;7.43;;;5.80;;
20908;SDS011;10614;53.198;6.570;2023-07-09T00:05:07;8.55;;;6.40;;
20908;SDS011;10614;53.198;6.570;2023-07-09T00:07:17;8.77;;;7.07;;
20908;SDS011;10614;53.198;6.570;2023-07-09T00:09:23;7.97;;;6.35;;
20908;SDS011;10614;53.198;6.570;2023-07-09T00:11:30;9.13;;;7.10;;
20908;SDS011;10614;53.198;6.570;2023-07-09T00:13:32;8.43;;;6.47;;
20908;SDS011;10614;53.198;6.570;2023-07-09T00:15:34;8.85;;;7.20;;
20908;SDS011;10614;53.198;6.570;2023-07-09T00:17:39;9.32;;;6.95;;
20908;SDS011;10614;53.198;6.570;2023-07-09T00:19:41;7.97;;;6.82;;
20908;SDS011;10614;53.198;6.570;2023-07-09T00:21:44;9.27;;;6.95;;
20908;SDS011;10614;53.198;6.570;2023-07-09T00:23:47;8.80;;;6.57;;
20908;SDS011;10614;53.198;6.570;2023-07-09T00:25:49;9.73;;;6.88;;
20908;SDS011;10614;53.198;6.570;2023-07-09T00:27:53;8.02;;;6.68;;
20908;SDS011;10614;53.198;6.570;2023-07-09T00:29:55;8.73;;;6.68;;
20908;SDS011;10614;53.198;6.570;2023-07-09T00:31:57;9.38;;;7.18;;
20908;SDS011;10614;53.198;6.570;2023-07-09T00:34:00;10.07;;;7.60;;
20908;SDS011;10614;53.198;6.570;2023-07-09T00:36:04;8.30;;;6.72;;
20908;SDS011;10614;53.198;6.570;2023-07-09T00:38:15;11.40;;;7.10;;
20908;SDS011;10614;53.198;6.570;2023-07-09T00:40:22;11.35;;;7.65;;
20908;SDS011;10614;53.198;6.570;2023-07-09T00:42:25;10.20;;;7.85;;
20908;SDS011;10614;53.198;6.570;2023-07-09T00:44:30;10.50;;;8.43;;
20908;SDS011;10614;53.198;6.570;2023-07-09T00:49:20;10.32;;;7.45;;
20908;SDS011;10614;53.198;6.570;2023-07-09T00:51:29;9.85;;;7.38;;
20908;SDS011;10614;53.198;6.570;2023-07-09T00:53:35;10.70;;;8.05;;
20908;SDS011;10614;53.198;6.570;2023-07-09T00:55:38;11.75;;;7.78;;
20908;SDS011;10614;53.198;6.570;2023-07-09T00:57:46;9.15;;;7.38;;
20908;SDS011;10614;53.198;6.570;2023-07-09T00:59:58;9.85;;;7.57;;
20908;SDS011;10614;53.198;6.570;2023-07-09T01:02:08;9.32;;;7.75;;
20908;SDS011;10614;53.198;6.570;2023-07-09T01:04:15;9.98;;;7.30;;
20908;SDS011;10614;53.198;6.570;2023-07-09T01:06:19;9.40;;;7.28;;
20908;SDS011;10614;53.198;6.570;2023-07-09T01:08:27;9.45;;;7.78;;
20908;SDS011;10614;53.198;6.570;2023-07-09T01:10:33;11.93;;;8.02;;
20908;SDS011;10614;53.198;6.570;2023-07-09T01:12:35;10.13;;;7.40;;
20908;SDS011;10614;53.198;6.570;2023-07-09T01:14:40;11.65;;;8.15;;
20908;SDS011;10614;53.198;6.570;2023-07-09T01:16:49;11.45;;;7.57;;
20908;SDS011;10614;53.198;6.570;2023-07-09T01:18:57;9.50;;;7.32;;
20908;SDS011;10614;53.198;6.570;2023-07-09T01:21:09;12.55;;;7.18;;
20908;SDS011;10614;53.198;6.570;2023-07-09T01:23:15;11.25;;;7.88;;
20908;SDS011;10614;53.198;6.570;2023-07-09T01:25:17;9.13;;;6.97;;
20908;SDS011;10614;53.198;6.570;2023-07-09T01:27:22;11.70;;;7.40;;
20908;SDS011;10614;53.198;6.570;2023-07-09T01:29:29;10.00;;;7.03;;
20908;SDS011;10614;53.198;6.570;2023-07-09T01:31:32;9.10;;;7.13;;
20908;SDS011;10614;53.198;6.570;2023-07-09T01:33:34;9.00;;;6.97;;
20908;SDS011;10614;53.198;6.570;2023-07-09T01:35:38;9.30;;;7.10;;
20908;SDS011;10614;53.198;6.570;2023-07-09T01:37:44;9.65;;;7.28;;
20908;SDS011;10614;53.198;6.570;2023-07-09T01:39:48;8.77;;;6.78;;
20908;SDS011;10614;53.198;6.570;2023-07-09T01:41:49;9.90;;;7.65;;
20908;SDS011;10614;53.198;6.570;2023-07-09T01:43:57;10.40;;;7.55;;
20908;SDS011;10614;53.198;6.570;2023-07-09T01:45:59;9.30;;;7.15;;
20908;SDS011;10614;53.198;6.570;2023-07-09T01:48:01;9.40;;;7.13;;
20908;SDS011;10614;53.198;6.570;2023-07-09T01:50:05;10.23;;;7.03;;
20908;SDS011;10614;53.198;6.570;2023-07-09T01:52:09;11.13;;;8.30;;
20908;SDS011;10614;53.198;6.570;2023-07-09T01:54:14;10.00;;;7.38;;
20908;SDS011;10614;53.198;6.570;2023-07-09T01:58:21;11.07;;;7.35;;
20908;SDS011;10614;53.198;6.570;2023-07-09T02:00:26;10.95;;;7.65;;
20908;SDS011;10614;53.198;6.570;2023-07-09T02:02:31;10.48;;;7.90;;
20908;SDS011;10614;53.198;6.570;2023-07-09T02:04:36;9.75;;;7.50;;
20908;SDS011;10614;53.198;6.570;2023-07-09T02:06:38;10.25;;;7.63;;
20908;SDS011;10614;53.198;6.570;2023-07-09T02:08:40;11.73;;;6.97;;
20908;SDS011;10614;53.198;6.570;2023-07-09T02:10:45;10.00;;;7.57;;
20908;SDS011;10614;53.198;6.570;2023-07-09T02:12:50;11.48;;;8.13;;
20908;SDS011;10614;53.198;6.570;2023-07-09T02:14:55;12.48;;;8.48;;
20908;SDS011;10614;53.198;6.570;2023-07-09T02:16:59;12.02;;;8.38;;
20908;SDS011;10614;53.198;6.570;2023-07-09T02:19:05;11.90;;;7.90;;
20908;SDS011;10614;53.198;6.570;2023-07-09T02:21:08;9.77;;;7.78;;
20908;SDS011;10614;53.198;6.570;2023-07-09T02:23:11;9.95;;;7.40;;
20908;SDS011;10614;53.198;6.570;2023-07-09T02:25:13;9.20;;;7.15;;
20908;SDS011;10614;53.198;6.570;2023-07-09T02:27:20;13.20;;;8.33;;
20908;SDS011;10614;53.198;6.570;2023-07-09T02:29:23;10.65;;;8.35;;
20908;SDS011;10614;53.198;6.570;2023-07-09T02:31:27;11.45;;;8.02;;
20908;SDS011;10614;53.198;6.570;2023-07-09T02:33:37;10.23;;;7.90;;
20908;SDS011;10614;53.198;6.570;2023-07-09T02:35:40;12.10;;;7.70;;
20908;SDS011;10614;53.198;6.570;2023-07-09T02:37:44;10.32;;;7.53;;
20908;SDS011;10614;53.198;6.570;2023-07-09T02:39:49;11.43;;;7.35;;
20908;SDS011;10614;53.198;6.570;2023-07-09T02:41:57;10.27;;;7.20;;
20908;SDS011;10614;53.198;6.570;2023-07-09T02:44:04;11.63;;;8.43;;
20908;SDS011;10614;53.198;6.570;2023-07-09T02:46:10;9.18;;;6.93;;
20908;SDS011;10614;53.198;6.570;2023-07-09T02:48:14;10.40;;;7.57;;
20908;SDS011;10614;53.198;6.570;2023-07-09T02:50:16;10.38;;;7.30;;
20908;SDS011;10614;53.198;6.570;2023-07-09T02:52:24;10.57;;;7.22;;
20908;SDS011;10614;53.198;6.570;2023-07-09T02:54:36;10.27;;;7.32;;
20908;SDS011;10614;53.198;6.570;2023-07-09T02:56:39;10.90;;;7.75;;
20908;SDS011;10614;53.198;6.570;2023-07-09T02:58:41;11.32;;;8.23;;
20908;SDS011;10614;53.198;6.570;2023-07-09T03:00:48;11.60;;;8.32;;
20908;SDS011;10614;53.198;6.570;2023-07-09T03:02:53;9.45;;;7.60;;
20908;SDS011;10614;53.198;6.570;2023-07-09T03:04:58;10.73;;;7.63;;
20908;SDS011;10614;53.198;6.570;2023-07-09T03:07:01;12.48;;;8.23;;
20908;SDS011;10614;53.198;6.570;2023-07-09T03:09:03;8.95;;;7.20;;
20908;SDS011;10614;53.198;6.570;2023-07-09T03:11:09;10.25;;;7.88;;
20908;SDS011;10614;53.198;6.570;2023-07-09T03:13:16;9.95;;;7.55;;
20908;SDS011;10614;53.198;6.570;2023-07-09T03:15:19;10.65;;;8.07;;
20908;SDS011;10614;53.198;6.570;2023-07-09T03:17:24;9.32;;;7.10;;
20908;SDS011;10614;53.198;6.570;2023-07-09T03:19:27;9.48;;;7.03;;
20908;SDS011;10614;53.198;6.570;2023-07-09T03:21:30;11.05;;;7.50;;
20908;SDS011;10614;53.198;6.570;2023-07-09T03:23:33;10.23;;;7.65;;
20908;SDS011;10614;53.198;6.570;2023-07-09T03:25:40;9.63;;;7.45;;
20908;SDS011;10614;53.198;6.570;2023-07-09T03:27:46;8.82;;;7.20;;
20908;SDS011;10614;53.198;6.570;2023-07-09T03:29:49;9.02;;;6.93;;
20908;SDS011;10614;53.198;6.570;2023-07-09T03:31:51;10.00;;;6.97;;
20908;SDS011;10614;53.198;6.570;2023-07-09T03:33:59;9.85;;;7.22;;
20908;SDS011;10614;53.198;6.570;2023-07-09T03:36:02;9.38;;;6.95;;
20908;SDS011;10614;53.198;6.570;2023-07-09T03:38:06;8.95;;;6.78;;
20908;SDS011;10614;53.198;6.570;2023-07-09T03:40:10;9.82;;;7.57;;
20908;SDS011;10614;53.198;6.570;2023-07-09T03:42:12;10.57;;;6.93;;
20908;SDS011;10614;53.198;6.570;2023-07-09T03:44:20;9.57;;;6.97;;
20908;SDS011;10614;53.198;6.570;2023-07-09T03:46:23;10.40;;;7.57;;
20908;SDS011;10614;53.198;6.570;2023-07-09T03:48:28;10.60;;;7.75;;
20908;SDS011;10614;53.198;6.570;2023-07-09T03:50:31;10.38;;;7.32;;
20908;SDS011;10614;53.198;6.570;2023-07-09T03:52:33;11.30;;;7.80;;
20908;SDS011;10614;53.198;6.570;2023-07-09T03:54:36;9.50;;;7.78;;
20908;SDS011;10614;53.198;6.570;2023-07-09T03:56:38;8.80;;;7.15;;
20908;SDS011;10614;53.198;6.570;2023-07-09T03:58:41;8.85;;;6.95;;
20908;SDS011;10614;53.198;6.570;2023-07-09T04:00:43;9.80;;;7.60;;
20908;SDS011;10614;53.198;6.570;2023-07-09T04:02:45;10.02;;;7.57;;
20908;SDS011;10614;53.198;6.570;2023-07-09T04:04:47;9.38;;;7.60;;
20908;SDS011;10614;53.198;6.570;2023-07-09T04:06:52;9.25;;;7.13;;
20908;SDS011;10614;53.198;6.570;2023-07-09T04:08:55;9.85;;;7.28;;
20908;SDS011;10614;53.198;6.570;2023-07-09T04:10:58;9.10;;;7.03;;
20908;SDS011;10614;53.198;6.570;2023-07-09T04:13:02;9.05;;;6.60;;
20908;SDS011;10614;53.198;6.570;2023-07-09T04:15:04;9.80;;;7.38;;
20908;SDS011;10614;53.198;6.570;2023-07-09T04:17:06;9.60;;;7.28;;
20908;SDS011;10614;53.198;6.570;2023-07-09T04:19:10;10.17;;;7.37;;
20908;SDS011;10614;53.198;6.570;2023-07-09T04:21:12;9.50;;;7.55;;
20908;SDS011;10614;53.198;6.570;2023-07-09T04:23:19;8.82;;;7.00;;
20908;SDS011;10614;53.198;6.570;2023-07-09T04:25:27;10.27;;;7.32;;
20908;SDS011;10614;53.198;6.570;2023-07-09T04:27:30;8.95;;;7.22;;
20908;SDS011;10614;53.198;6.570;2023-07-09T04:29:35;9.57;;;7.18;;
20908;SDS011;10614;53.198;6.570;2023-07-09T04:31:38;9.40;;;7.13;;
20908;SDS011;10614;53.198;6.570;2023-07-09T04:33:44;9.85;;;7.25;;
20908;SDS011;10614;53.198;6.570;2023-07-09T04:35:49;9.05;;;6.97;;
20908;SDS011;10614;53.198;6.570;2023-07-09T04:37:52;8.48;;;6.93;;
20908;SDS011;10614;53.198;6.570;2023-07-09T04:39:58;8.68;;;7.20;;
20908;SDS011;10614;53.198;6.570;2023-07-09T04:42:05;9.95;;;7.55;;
20908;SDS011;10614;53.198;6.570;2023-07-09T04:44:07;9.82;;;7.30;;
20908;SDS011;10614;53.198;6.570;2023-07-09T04:46:09;8.82;;;7.05;;
20908;SDS011;10614;53.198;6.570;2023-07-09T04:48:11;9.27;;;7.57;;
20908;SDS011;10614;53.198;6.570;2023-07-09T04:50:13;8.90;;;7.20;;
20908;SDS011;10614;53.198;6.570;2023-07-09T04:52:16;9.95;;;8.02;;
20908;SDS011;10614;53.198;6.570;2023-07-09T04:54:24;12.00;;;7.63;;
20908;SDS011;10614;53.198;6.570;2023-07-09T04:56:30;9.45;;;7.93;;
20908;SDS011;10614;53.198;6.570;2023-07-09T04:58:33;10.45;;;8.13;;
20908;SDS011;10614;53.198;6.570;2023-07-09T05:00:36;8.93;;;7.18;;
20908;SDS011;10614;53.198;6.570;2023-07-09T05:02:54;9.73;;;7.35;;
20908;SDS011;10614;53.198;6.570;2023-07-09T05:04:56;9.13;;;7.18;;
20908;SDS011;10614;53.198;6.570;2023-07-09T05:06:58;9.50;;;7.40;;
20908;SDS011;10614;53.198;6.570;2023-07-09T05:09:01;9.77;;;7.40;;
20908;SDS011;10614;53.198;6.570;2023-07-09T05:11:07;8.82;;;6.65;;
20908;SDS011;10614;53.198;6.570;2023-07-09T05:13:11;9.70;;;6.78;;
20908;SDS011;10614;53.198;6.570;2023-07-09T05:15:14;8.02;;;6.30;;
20908;SDS011;10614;53.198;6.570;2023-07-09T05:17:16;9.73;;;7.03;;
20908;SDS011;10614;53.198;6.570;2023-07-09T05:19:19;11.15;;;8.05;;
20908;SDS011;10614;53.198;6.570;2023-07-09T05:21:21;8.52;;;6.70;;
20908;SDS011;10614;53.198;6.570;2023-07-09T05:23:24;9.05;;;6.47;;
20908;SDS011;10614;53.198;6.570;2023-07-09T05:25:26;8.10;;;6.15;;
20908;SDS011;10614;53.198;6.570;2023-07-09T05:27:29;7.97;;;6.40;;
20908;SDS011;10614;53.198;6.570;2023-07-09T05:29:32;9.02;;;6.10;;
20908;SDS011;10614;53.198;6.570;2023-07-09T05:31:34;7.47;;;5.90;;
20908;SDS011;10614;53.198;6.570;2023-07-09T05:33:37;7.57;;;5.97;;
20908;SDS011;10614;53.198;6.570;2023-07-09T05:35:42;9.95;;;6.28;;
20908;SDS011;10614;53.198;6.570;2023-07-09T05:37:44;7.75;;;6.03;;
20908;SDS011;10614;53.198;6.570;2023-07-09T05:39:46;8.75;;;6.55;;
20908;SDS011;10614;53.198;6.570;2023-07-09T05:41:50;7.70;;;6.07;;
20908;SDS011;10614;53.198;6.570;2023-07-09T05:43:55;7.95;;;6.38;;
20908;SDS011;10614;53.198;6.570;2023-07-09T05:46:00;9.70;;;6.68;;
20908;SDS011;10614;53.198;6.570;2023-07-09T05:48:03;9.75;;;6.75;;
20908;SDS011;10614;53.198;6.570;2023-07-09T05:50:06;8.35;;;6.35;;
20908;SDS011;10614;53.198;6.570;2023-07-09T05:52:09;8.93;;;6.50;;
20908;SDS011;10614;53.198;6.570;2023-07-09T05:54:13;8.40;;;6.50;;
20908;SDS011;10614;53.198;6.570;2023-07-09T05:56:20;8.43;;;6.30;;
20908;SDS011;10614;53.198;6.570;2023-07-09T05:58:22;8.13;;;6.85;;
20908;SDS011;10614;53.198;6.570;2023-07-09T06:00:25;9.32;;;6.57;;
20908;SDS011;10614;53.198;6.570;2023-07-09T06:02:32;12.93;;;7.50;;
20908;SDS011;10614;53.198;6.570;2023-07-09T06:04:34;9.13;;;6.70;;
20908;SDS011;10614;53.198;6.570;2023-07-09T06:06:42;8.32;;;6.47;;
20908;SDS011;10614;53.198;6.570;2023-07-09T06:08:44;7.95;;;6.60;;
20908;SDS011;10614;53.198;6.570;2023-07-09T06:10:50;9.43;;;6.55;;
20908;SDS011;10614;53.198;6.570;2023-07-09T06:12:53;9.23;;;7.18;;
20908;SDS011;10614;53.198;6.570;2023-07-09T06:14:59;9.70;;;7.55;;
20908;SDS011;10614;53.198;6.570;2023-07-09T06:17:03;9.83;;;7.33;;
20908;SDS011;10614;53.198;6.570;2023-07-09T06:19:12;9.63;;;6.57;;
20908;SDS011;10614;53.198;6.570;2023-07-09T06:21:14;7.90;;;6.50;;
20908;SDS011;10614;53.198;6.570;2023-07-09T06:23:16;7.65;;;6.50;;
20908;SDS011;10614;53.198;6.570;2023-07-09T06:25:17;6.88;;;5.40;;
20908;SDS011;10614;53.198;6.570;2023-07-09T06:27:20;7.90;;;6.18;;
20908;SDS011;10614;53.198;6.570;2023-07-09T06:29:22;7.38;;;6.13;;
20908;SDS011;10614;53.198;6.570;2023-07-09T06:33:29;7.43;;;6.00;;
20908;SDS011;10614;53.198;6.570;2023-07-09T06:35:33;9.98;;;7.38;;
20908;SDS011;10614;53.198;6.570;2023-07-09T06:37:35;8.05;;;6.60;;
20908;SDS011;10614;53.198;6.570;2023-07-09T06:39:41;8.23;;;6.57;;
20908;SDS011;10614;53.198;6.570;2023-07-09T06:41:43;9.07;;;6.97;;
20908;SDS011;10614;53.198;6.570;2023-07-09T06:43:44;7.70;;;6.47;;
20908;SDS011;10614;53.198;6.570;2023-07-09T06:45:50;8.90;;;6.90;;
20908;SDS011;10614;53.198;6.570;2023-07-09T06:47:54;9.45;;;7.57;;
20908;SDS011;10614;53.198;6.570;2023-07-09T06:49:56;10.55;;;7.70;;
20908;SDS011;10614;53.198;6.570;2023-07-09T06:51:59;10.70;;;7.32;;
20908;SDS011;10614;53.198;6.570;2023-07-09T06:54:02;8.73;;;6.83;;
20908;SDS011;10614;53.198;6.570;2023-07-09T06:56:09;9.15;;;6.75;;
20908;SDS011;10614;53.198;6.570;2023-07-09T06:58:11;8.25;;;6.32;;
20908;SDS011;10614;53.198;6.570;2023-07-09T07:00:14;9.98;;;7.28;;
20908;SDS011;10614;53.198;6.570;2023-07-09T07:02:16;7.50;;;5.70;;
20908;SDS011;10614;53.198;6.570;2023-07-09T07:04:19;8.52;;;6.90;;
20908;SDS011;10614;53.198;6.570;2023-07-09T07:06:21;8.50;;;7.15;;
20908;SDS011;10614;53.198;6.570;2023-07-09T07:08:36;9.10;;;7.32;;
20908;SDS011;10614;53.198;6.570;2023-07-09T07:10:41;8.35;;;6.50;;
20908;SDS011;10614;53.198;6.570;2023-07-09T07:12:44;8.88;;;6.10;;
20908;SDS011;10614;53.198;6.570;2023-07-09T07:14:47;9.02;;;6.43;;
20908;SDS011;10614;53.198;6.570;2023-07-09T07:16:49;8.30;;;6.68;;
20908;SDS011;10614;53.198;6.570;2023-07-09T07:18:51;8.63;;;6.47;;
20908;SDS011;10614;53.198;6.570;2023-07-09T07:20:53;8.32;;;6.53;;
20908;SDS011;10614;53.198;6.570;2023-07-09T07:22:57;9.15;;;6.90;;
20908;SDS011;10614;53.198;6.570;2023-07-09T07:25:04;10.93;;;6.90;;
20908;SDS011;10614;53.198;6.570;2023-07-09T07:27:07;9.50;;;7.15;;
20908;SDS011;10614;53.198;6.570;2023-07-09T07:29:10;9.55;;;7.60;;
20908;SDS011;10614;53.198;6.570;2023-07-09T07:31:15;11.63;;;7.57;;
20908;SDS011;10614;53.198;6.570;2023-07-09T07:33:18;10.18;;;7.70;;
20908;SDS011;10614;53.198;6.570;2023-07-09T07:35:20;10.10;;;7.40;;
20908;SDS011;10614;53.198;6.570;2023-07-09T07:37:24;10.13;;;7.30;;
20908;SDS011;10614;53.198;6.570;2023-07-09T07:39:28;9.07;;;7.28;;
20908;SDS011;10614;53.198;6.570;2023-07-09T07:41:33;10.70;;;7.13;;
20908;SDS011;10614;53.198;6.570;2023-07-09T07:43:35;9.32;;;7.10;;
20908;SDS011;10614;53.198;6.570;2023-07-09T07:45:39;12.75;;;8.20;;
20908;SDS011;10614;53.198;6.570;2023-07-09T07:47:45;10.25;;;7.13;;
20908;SDS011;10614;53.198;6.570;2023-07-09T07:49:48;12.10;;;7.95;;
20908;SDS011;10614;53.198;6.570;2023-07-09T07:51:54;10.40;;;7.65;;
20908;SDS011;10614;53.198;6.570;2023-07-09T07:53:57;10.10;;;8.05;;
20908;SDS011;10614;53.198;6.570;2023-07-09T07:55:59;12.10;;;8.15;;
20908;SDS011;10614;53.198;6.570;2023-07-09T07:58:04;12.00;;;7.75;;
20908;SDS011;10614;53.198;6.570;2023-07-09T08:00:07;9.65;;;7.78;;
20908;SDS011;10614;53.198;6.570;2023-07-09T08:02:11;9.45;;;7.15;;
20908;SDS011;10614;53.198;6.570;2023-07-09T08:04:15;9.73;;;7.60;;
20908;SDS011;10614;53.198;6.570;2023-07-09T08:06:18;9.90;;;7.65;;
20908;SDS011;10614;53.198;6.570;2023-07-09T08:08:20;9.75;;;7.20;;
20908;SDS011;10614;53.198;6.570;2023-07-09T08:10:22;9.15;;;6.97;;
20908;SDS011;10614;53.198;6.570;2023-07-09T08:12:36;11.10;;;7.63;;
20908;SDS011;10614;53.198;6.570;2023-07-09T08:14:44;9.35;;;7.45;;
20908;SDS011;10614;53.198;6.570;2023-07-09T08:16:47;9.75;;;7.05;;
20908;SDS011;10614;53.198;6.570;2023-07-09T08:18:48;11.23;;;7.25;;
20908;SDS011;10614;53.198;6.570;2023-07-09T08:22:55;11.27;;;7.88;;
20908;SDS011;10614;53.198;6.570;2023-07-09T08:24:59;9.85;;;7.32;;
20908;SDS011;10614;53.198;6.570;2023-07-09T08:27:01;10.95;;;7.47;;
20908;SDS011;10614;53.198;6.570;2023-07-09T08:29:06;9.82;;;7.40;;
20908;SDS011;10614;53.198;6.570;2023-07-09T08:31:10;12.40;;;7.93;;
20908;SDS011;10614;53.198;6.570;2023-07-09T08:33:12;10.25;;;7.03;;
20908;SDS011;10614;53.198;6.570;2023-07-09T08:35:13;8.88;;;6.82;;
20908;SDS011;10614;53.198;6.570;2023-07-09T08:37:17;9.05;;;7.20;;
20908;SDS011;10614;53.198;6.570;2023-07-09T08:39:19;9.00;;;6.72;;
20908;SDS011;10614;53.198;6.570;2023-07-09T08:41:29;9.73;;;7.32;;
20908;SDS011;10614;53.198;6.570;2023-07-09T08:43:49;11.40;;;7.88;;
20908;SDS011;10614;53.198;6.570;2023-07-09T08:45:57;13.20;;;8.60;;
20908;SDS011;10614;53.198;6.570;2023-07-09T08:48:08;14.00;;;9.30;;
20908;SDS011;10614;53.198;6.570;2023-07-09T08:50:17;10.95;;;8.63;;
20908;SDS011;10614;53.198;6.570;2023-07-09T08:52:37;12.90;;;8.63;;
20908;SDS011;10614;53.198;6.570;2023-07-09T08:54:50;12.57;;;8.32;;
20908;SDS011;10614;53.198;6.570;2023-07-09T08:57:07;9.70;;;7.70;;
20908;SDS011;10614;53.198;6.570;2023-07-09T08:59:23;11.60;;;8.25;;
20908;SDS011;10614;53.198;6.570;2023-07-09T09:01:44;10.80;;;7.88;;
20908;SDS011;10614;53.198;6.570;2023-07-09T09:06:39;12.65;;;9.98;;
20908;SDS011;10614;53.198;6.570;2023-07-09T09:12:11;16.33;;;10.38;;
20908;SDS011;10614;53.198;6.570;2023-07-09T09:14:27;14.05;;;9.63;;
20908;SDS011;10614;53.198;6.570;2023-07-09T09:16:53;12.15;;;8.93;;
20908;SDS011;10614;53.198;6.570;2023-07-09T09:19:15;16.27;;;10.45;;
20908;SDS011;10614;53.198;6.570;2023-07-09T09:21:29;13.63;;;9.40;;
20908;SDS011;10614;53.198;6.570;2023-07-09T09:26:41;12.60;;;10.32;;
20908;SDS011;10614;53.198;6.570;2023-07-09T09:31:51;12.75;;;9.43;;
20908;SDS011;10614;53.198;6.570;2023-07-09T09:33:56;18.13;;;12.57;;
20908;SDS011;10614;53.198;6.570;2023-07-09T09:36:01;14.07;;;10.68;;
20908;SDS011;10614;53.198;6.570;2023-07-09T09:38:53;15.20;;;11.40;;
20908;SDS011;10614;53.198;6.570;2023-07-09T09:40:59;17.50;;;11.55;;
20908;SDS011;10614;53.198;6.570;2023-07-09T09:43:02;14.02;;;10.25;;
20908;SDS011;10614;53.198;6.570;2023-07-09T09:45:14;16.88;;;12.23;;
20908;SDS011;10614;53.198;6.570;2023-07-09T09:49:19;21.85;;;12.00;;
20908;SDS011;10614;53.198;6.570;2023-07-09T09:51:22;13.70;;;10.85;;
20908;SDS011;10614;53.198;6.570;2023-07-09T09:53:24;13.07;;;11.38;;
20908;SDS011;10614;53.198;6.570;2023-07-09T09:55:29;14.57;;;11.18;;
20908;SDS011;10614;53.198;6.570;2023-07-09T09:57:32;16.80;;;12.30;;
20908;SDS011;10614;53.198;6.570;2023-07-09T09:59:36;14.32;;;11.07;;
20908;SDS011;10614;53.198;6.570;2023-07-09T10:01:38;14.07;;;10.90;;
20908;SDS011;10614;53.198;6.570;2023-07-09T10:03:40;15.20;;;12.30;;
20908;SDS011;10614;53.198;6.570;2023-07-09T10:05:43;15.75;;;12.80;;
20908;SDS011;10614;53.198;6.570;2023-07-09T10:07:50;13.68;;;11.63;;
20908;SDS011;10614;53.198;6.570;2023-07-09T10:09:59;14.60;;;10.95;;
20908;SDS011;10614;53.198;6.570;2023-07-09T10:12:08;13.15;;;10.40;;
20908;SDS011;10614;53.198;6.570;2023-07-09T10:14:22;13.18;;;11.23;;
20908;SDS011;10614;53.198;6.570;2023-07-09T10:16:32;14.32;;;11.88;;
20908;SDS011;10614;53.198;6.570;2023-07-09T10:18:42;17.63;;;12.25;;
20908;SDS011;10614;53.198;6.570;2023-07-09T10:20:51;20.15;;;13.23;;
20908;SDS011;10614;53.198;6.570;2023-07-09T10:23:03;13.80;;;11.43;;
20908;SDS011;10614;53.198;6.570;2023-07-09T10:25:22;14.18;;;11.18;;
20908;SDS011;10614;53.198;6.570;2023-07-09T10:27:42;16.17;;;10.52;;
20908;SDS011;10614;53.198;6.570;2023-07-09T10:30:02;21.75;;;12.10;;
20908;SDS011;10614;53.198;6.570;2023-07-09T10:32:18;12.27;;;10.40;;
20908;SDS011;10614;53.198;6.570;2023-07-09T10:34:30;14.70;;;12.40;;
20908;SDS011;10614;53.198;6.570;2023-07-09T10:36:41;12.43;;;9.77;;
20908;SDS011;10614;53.198;6.570;2023-07-09T10:39:00;12.70;;;11.00;;
20908;SDS011;10614;53.198;6.570;2023-07-09T10:41:07;13.40;;;9.52;;
20908;SDS011;10614;53.198;6.570;2023-07-09T10:43:15;15.27;;;10.45;;
20908;SDS011;10614;53.198;6.570;2023-07-09T10:45:22;14.20;;;10.48;;
20908;SDS011;10614;53.198;6.570;2023-07-09T10:47:29;10.70;;;9.02;;
20908;SDS011;10614;53.198;6.570;2023-07-09T10:49:36;13.40;;;10.23;;
20908;SDS011;10614;53.198;6.570;2023-07-09T10:51:43;15.90;;;10.40;;
20908;SDS011;10614;53.198;6.570;2023-07-09T10:53:51;11.82;;;9.95;;
20908;SDS011;10614;53.198;6.570;2023-07-09T10:55:59;13.43;;;9.80;;
20908;SDS011;10614;53.198;6.570;2023-07-09T10:58:05;11.02;;;9.35;;
20908;SDS011;10614;53.198;6.570;2023-07-09T11:00:23;10.68;;;8.65;;
20908;SDS011;10614;53.198;6.570;2023-07-09T11:02:34;10.73;;;9.05;;
20908;SDS011;10614;53.198;6.570;2023-07-09T11:04:39;10.48;;;8.60;;
20908;SDS011;10614;53.198;6.570;2023-07-09T11:06:45;14.32;;;10.60;;
20908;SDS011;10614;53.198;6.570;2023-07-09T11:08:51;13.85;;;10.95;;
20908;SDS011;10614;53.198;6.570;2023-07-09T11:10:58;11.80;;;8.77;;
20908;SDS011;10614;53.198;6.570;2023-07-09T11:13:03;10.98;;;8.90;;
20908;SDS011;10614;53.198;6.570;2023-07-09T11:15:09;11.68;;;8.88;;
20908;SDS011;10614;53.198;6.570;2023-07-09T11:17:18;15.80;;;8.27;;
20908;SDS011;10614;53.198;6.570;2023-07-09T11:19:22;11.25;;;8.73;;
20908;SDS011;10614;53.198;6.570;2023-07-09T11:21:24;13.75;;;10.00;;
20908;SDS011;10614;53.198;6.570;2023-07-09T11:23:35;11.88;;;10.00;;
20908;SDS011;10614;53.198;6.570;2023-07-09T11:25:41;12.00;;;9.35;;
20908;SDS011;10614;53.198;6.570;2023-07-09T11:27:46;12.70;;;8.68;;
20908;SDS011;10614;53.198;6.570;2023-07-09T11:29:56;10.68;;;8.77;;
20908;SDS011;10614;53.198;6.570;2023-07-09T11:32:06;10.45;;;8.80;;
20908;SDS011;10614;53.198;6.570;2023-07-09T11:34:17;12.60;;;9.45;;
20908;SDS011;10614;53.198;6.570;2023-07-09T11:36:24;13.93;;;10.13;;
20908;SDS011;10614;53.198;6.570;2023-07-09T11:38:36;10.45;;;8.18;;
20908;SDS011;10614;53.198;6.570;2023-07-09T11:40:45;9.43;;;7.95;;
20908;SDS011;10614;53.198;6.570;2023-07-09T11:42:51;10.75;;;8.27;;
20908;SDS011;10614;53.198;6.570;2023-07-09T11:44:58;10.45;;;8.40;;
20908;SDS011;10614;53.198;6.570;2023-07-09T11:47:13;11.98;;;8.70;;
20908;SDS011;10614;53.198;6.570;2023-07-09T11:49:23;11.00;;;8.73;;
20908;SDS011;10614;53.198;6.570;2023-07-09T11:51:30;11.07;;;8.93;;
20908;SDS011;10614;53.198;6.570;2023-07-09T11:53:41;11.93;;;9.10;;
20908;SDS011;10614;53.198;6.570;2023-07-09T11:55:47;13.13;;;8.63;;
20908;SDS011;10614;53.198;6.570;2023-07-09T11:57:52;11.27;;;8.98;;
20908;SDS011;10614;53.198;6.570;2023-07-09T11:59:58;11.02;;;8.95;;
20908;SDS011;10614;53.198;6.570;2023-07-09T12:02:00;11.15;;;8.38;;
20908;SDS011;10614;53.198;6.570;2023-07-09T12:04:03;10.82;;;8.07;;
20908;SDS011;10614;53.198;6.570;2023-07-09T12:06:13;11.73;;;8.20;;
20908;SDS011;10614;53.198;6.570;2023-07-09T12:08:18;11.18;;;8.70;;
20908;SDS011;10614;53.198;6.570;2023-07-09T12:10:35;12.13;;;9.20;;
20908;SDS011;10614;53.198;6.570;2023-07-09T12:12:41;13.57;;;9.60;;
20908;SDS011;10614;53.198;6.570;2023-07-09T12:14:43;11.65;;;8.90;;
20908;SDS011;10614;53.198;6.570;2023-07-09T12:16:46;11.30;;;8.68;;
20908;SDS011;10614;53.198;6.570;2023-07-09T12:18:49;13.80;;;8.35;;
20908;SDS011;10614;53.198;6.570;2023-07-09T12:20:52;11.55;;;9.57;;
20908;SDS011;10614;53.198;6.570;2023-07-09T12:22:56;11.07;;;8.73;;
20908;SDS011;10614;53.198;6.570;2023-07-09T12:24:58;11.50;;;9.00;;
20908;SDS011;10614;53.198;6.570;2023-07-09T12:27:01;9.85;;;8.27;;
20908;SDS011;10614;53.198;6.570;2023-07-09T12:29:04;11.10;;;8.00;;
20908;SDS011;10614;53.198;6.570;2023-07-09T12:31:13;15.00;;;8.05;;
20908;SDS011;10614;53.198;6.570;2023-07-09T12:33:17;14.20;;;9.55;;
20908;SDS011;10614;53.198;6.570;2023-07-09T12:35:19;10.73;;;8.05;;
20908;SDS011;10614;53.198;6.570;2023-07-09T12:37:31;12.60;;;9.18;;
20908;SDS011;10614;53.198;6.570;2023-07-09T12:39:34;9.43;;;8.38;;
20908;SDS011;10614;53.198;6.570;2023-07-09T12:41:39;10.07;;;7.97;;
20908;SDS011;10614;53.198;6.570;2023-07-09T12:43:42;9.73;;;7.93;;
20908;SDS011;10614;53.198;6.570;2023-07-09T12:45:44;9.93;;;7.53;;
20908;SDS011;10614;53.198;6.570;2023-07-09T12:47:47;10.73;;;7.63;;
20908;SDS011;10614;53.198;6.570;2023-07-09T12:49:50;10.35;;;8.20;;
20908;SDS011;10614;53.198;6.570;2023-07-09T12:52:02;12.35;;;8.07;;